Davison, MI

03:40 AM EST 2017 urtarrila ren 23 an (GMT -0500)
Solar Sub. | | Change Station
Active Advisory: Marine Fog Advisory

Elev 804 ft 42.99 °N, 83.55 °W | Updated 19 seconds ago

Lanbroa
Lanbroa
40.0 °F
Feels Like 40 °F
N
0.0
Haizea Aldagarria Haizea from IE

Gaur
High -- | Low -- °F
--% Chance of Precip.
Yesterday
High -- | Low -- °F
Precip. -- in
Presioa 29.65 in
Ikusgaitasuna 3.0 Miliak
Clouds Estalia 300 ft
Izozki haizeak 40 °F
Ihintzaren maila 39 °F
Afoinua 98%
Rainfall 0.00 in
Snow Depth Not available.
7:57 AM 5:35 PM
Waning Crescent, 20% visible
SPECI KFNT 230835Z AUTO 03006KT 3SM BR OVC003 04/04 A2965 RMK AO2 T00440044
Presioa 29.65 in
Ikusgaitasuna 3.0 Miliak
Clouds Estalia 300 ft
Izozki haizeak 40 °F
Ihintzaren maila 39 °F
Afoinua 98%
Rainfall 0.00 in
Snow Depth Not available.
7:57 AM 5:35 PM
Waning Crescent, 20% visible
SPECI KFNT 230835Z AUTO 03006KT 3SM BR OVC003 04/04 A2965 RMK AO2 T00440044

Get Your Daily Forecast Email!

Thanks for signing up!

Be on the lookout for a verification email in your inbox.

You'll start receiving the daily forecast at 8 AM.

×

10-Day Weather Forecast

Almanac

Astronomy

Jan. 23, 2017 Rise Set
Actual Time
Civil Twilight
Nautical Twilight
Astronomical Twilight
Moon
Length Of Visible Light
Length of Day
Tomorrow will be .
, % of the Moon is Illuminated

Today's Extremes

State Highs State Lows

Community

WunderPhotos

Upload Photos

1,962,540 photos uploaded!

WunderBlog® & News

Nearby

Air Quality

  Air Quality AQ Index Pollutant
Not available.

Snow Depth

Station Depth Elevation

Earthquake Activity

City Distance Mag. Time & Date
Minimum magnitude displayed is 2.5.

Coastal Water Temperatures

Lekua Tenperatura

Stations

Nearby Weather Stations

Station Location Temp Izozki haizeak Ihintzaren maila Afoinua Haizea Precip. Elev Eguneratuta Type
                   

Watches & Warnings

Marine Fog Advisory
Issued: 11:41 AM EST Jan. 22, 2017 – National Weather Service

... Dense fog advisory now in effect until 10 am EST Monday...

The dense fog advisory is now in effect until 10 am EST Monday.

* Expect dense fog with visibilities of one quarter of a mile or
less until 10 am EST Monday.

Refer to the latest marine forecasts for greater detail.

Precautionary/preparedness actions...

A dense fog advisory means visibilities will frequently be
reduced to less than one mile. Inexperienced mariners...
especially those operating smaller vessels should avoid
navigating in these conditions.